createdAt,value
2022-09-23T00:00:49.615Z,10.80
2022-09-23T00:03:16.662Z,10.80
2022-09-23T00:05:44.069Z,10.70
2022-09-23T00:08:11.780Z,10.70
2022-09-23T00:10:39.377Z,10.70
2022-09-23T00:13:06.552Z,10.70
2022-09-23T00:15:38.090Z,10.70
2022-09-23T00:18:04.991Z,10.60
2022-09-23T00:20:33.293Z,10.60
2022-09-23T00:23:00.567Z,10.60
2022-09-23T00:25:29.712Z,10.50
2022-09-23T00:27:56.951Z,10.50
2022-09-23T00:30:23.689Z,10.50
2022-09-23T00:32:50.458Z,10.40
2022-09-23T00:35:17.167Z,10.40
2022-09-23T00:37:43.777Z,10.40
2022-09-23T00:40:12.309Z,10.40
2022-09-23T00:42:45.077Z,10.40
2022-09-23T00:45:12.046Z,10.40
2022-09-23T00:47:45.207Z,10.40
2022-09-23T00:50:35.081Z,10.40
2022-09-23T00:53:03.692Z,10.30
2022-09-23T00:55:33.031Z,10.40
2022-09-23T00:58:01.372Z,10.30
2022-09-23T01:00:28.084Z,10.30
2022-09-23T01:02:54.960Z,10.20
2022-09-23T01:05:21.642Z,10.20
2022-09-23T01:07:49.112Z,10.30
2022-09-23T01:10:18.607Z,10.30
2022-09-23T01:13:04.048Z,10.30
2022-09-23T01:15:31.125Z,10.30
2022-09-23T01:18:23.028Z,10.30
2022-09-23T01:21:13.235Z,10.20
2022-09-23T01:23:48.951Z,10.20
2022-09-23T01:26:19.343Z,10.20
2022-09-23T01:28:45.955Z,10.20
2022-09-23T01:31:18.776Z,10.30
2022-09-23T01:33:51.755Z,10.30
2022-09-23T01:36:30.259Z,10.30
2022-09-23T01:39:00.913Z,10.30
2022-09-23T01:41:40.586Z,10.30
2022-09-23T01:44:13.179Z,10.20
2022-09-23T01:47:00.766Z,10.10
2022-09-23T01:49:27.361Z,10.10
2022-09-23T01:51:57.556Z,10.10
2022-09-23T01:54:28.601Z,10.10
2022-09-23T01:57:01.777Z,10.10
2022-09-23T01:59:36.148Z,10.00
2022-09-23T02:02:29.230Z,10.00
2022-09-23T02:05:05.189Z,10.00
2022-09-23T02:07:31.761Z,9.90
2022-09-23T02:10:02.763Z,10.00
2022-09-23T02:12:30.324Z,9.90
2022-09-23T02:15:02.659Z,9.90
2022-09-23T02:17:33.869Z,9.90
2022-09-23T02:20:02.762Z,9.80
2022-09-23T02:22:40.918Z,9.80
2022-09-23T02:25:08.737Z,9.70
2022-09-23T02:27:41.557Z,9.80
2022-09-23T02:30:09.579Z,9.80
2022-09-23T02:32:54.698Z,9.70
2022-09-23T02:35:37.163Z,9.70
2022-09-23T02:38:17.682Z,9.70
2022-09-23T02:40:55.887Z,9.70
2022-09-23T02:43:33.131Z,9.60
2022-09-23T02:46:00.258Z,9.60
2022-09-23T02:48:29.312Z,9.60
2022-09-23T02:50:56.104Z,9.50
2022-09-23T02:53:23.327Z,9.60
2022-09-23T02:55:51.173Z,9.60
2022-09-23T02:58:17.983Z,9.50
2022-09-23T03:00:44.686Z,9.50
2022-09-23T03:03:26.830Z,9.50
2022-09-23T03:05:55.939Z,9.50
2022-09-23T03:08:32.372Z,9.50
2022-09-23T03:11:04.318Z,9.50
2022-09-23T03:13:51.129Z,9.50
2022-09-23T03:16:24.632Z,9.50
2022-09-23T03:19:02.967Z,9.50
2022-09-23T03:21:34.003Z,9.50
2022-09-23T03:24:02.797Z,9.40
2022-09-23T03:26:34.284Z,9.40
2022-09-23T03:29:05.172Z,9.40
2022-09-23T03:31:33.026Z,9.40
2022-09-23T03:34:02.392Z,9.40
2022-09-23T03:36:51.496Z,9.40
2022-09-23T03:39:44.554Z,9.30
2022-09-23T03:42:16.663Z,9.40
2022-09-23T03:44:44.466Z,9.30
2022-09-23T03:47:12.745Z,9.30
2022-09-23T03:49:39.913Z,9.30
2022-09-23T03:52:06.911Z,9.30
2022-09-23T03:54:34.063Z,9.30
2022-09-23T03:57:02.054Z,9.30
2022-09-23T03:59:30.319Z,9.30
2022-09-23T04:01:57.226Z,9.20
2022-09-23T04:04:23.846Z,9.30
2022-09-23T04:06:50.463Z,9.30
2022-09-23T04:09:17.114Z,9.30
2022-09-23T04:11:43.723Z,9.20
2022-09-23T04:14:12.099Z,9.20
2022-09-23T04:16:39.122Z,9.20
2022-09-23T04:19:11.701Z,9.20
2022-09-23T04:21:39.002Z,9.20
2022-09-23T04:24:05.793Z,9.20
2022-09-23T04:26:33.411Z,9.20
2022-09-23T04:29:00.138Z,9.20
2022-09-23T04:31:26.847Z,9.20
2022-09-23T04:33:53.653Z,9.20
2022-09-23T04:36:20.600Z,9.30
2022-09-23T04:38:47.727Z,9.30
2022-09-23T04:41:14.686Z,9.30
2022-09-23T04:43:42.089Z,9.30
2022-09-23T04:46:09.761Z,9.40
2022-09-23T04:48:37.513Z,9.50
2022-09-23T04:51:04.628Z,9.50
2022-09-23T04:53:31.653Z,9.50
2022-09-23T04:56:09.801Z,9.50
2022-09-23T04:58:36.553Z,9.50
2022-09-23T05:01:17.046Z,9.50
2022-09-23T05:03:49.632Z,9.50
2022-09-23T05:06:16.254Z,9.50
2022-09-23T05:08:47.178Z,9.50
2022-09-23T05:11:13.736Z,9.60
2022-09-23T05:13:40.356Z,9.50
2022-09-23T05:16:08.184Z,9.60
2022-09-23T05:18:35.406Z,9.50
2022-09-23T05:21:02.588Z,9.50
2022-09-23T05:23:29.837Z,9.50
2022-09-23T05:25:59.047Z,9.50
2022-09-23T05:28:35.236Z,9.50
2022-09-23T05:31:03.206Z,9.50
2022-09-23T05:33:30.255Z,9.50
2022-09-23T05:35:57.055Z,9.60
2022-09-23T05:38:23.829Z,9.50
2022-09-23T05:41:01.180Z,9.60
2022-09-23T05:43:28.132Z,9.60
2022-09-23T05:46:02.298Z,9.70
2022-09-23T05:48:32.006Z,9.80
2022-09-23T05:50:59.547Z,9.90
2022-09-23T05:53:26.930Z,10.00
2022-09-23T05:55:54.630Z,10.00
2022-09-23T05:58:21.678Z,10.20
2022-09-23T06:00:49.290Z,10.30
2022-09-23T06:03:17.207Z,10.40
2022-09-23T06:05:43.865Z,10.50
2022-09-23T06:08:10.958Z,10.70
2022-09-23T06:10:41.723Z,10.80
2022-09-23T06:13:08.370Z,10.90
2022-09-23T06:15:35.352Z,11.00
2022-09-23T06:18:02.319Z,11.20
2022-09-23T06:20:28.889Z,11.30
2022-09-23T06:22:56.462Z,11.50
2022-09-23T06:25:23.103Z,11.60
2022-09-23T06:27:54.410Z,11.80
2022-09-23T06:30:21.638Z,11.80
2022-09-23T06:32:49.968Z,11.90
2022-09-23T06:35:25.983Z,12.00
2022-09-23T06:37:54.072Z,12.10
2022-09-23T06:40:22.394Z,12.10
2022-09-23T06:42:52.346Z,12.20
2022-09-23T06:45:21.411Z,12.20
2022-09-23T06:47:51.119Z,12.20
2022-09-23T06:50:18.009Z,12.20
2022-09-23T06:52:50.190Z,12.40
2022-09-23T06:55:16.827Z,12.40
2022-09-23T06:57:43.439Z,12.50
2022-09-23T07:00:10.359Z,12.60
2022-09-23T07:02:37.107Z,12.60
2022-09-23T07:05:03.885Z,12.50
2022-09-23T07:07:31.330Z,12.50
2022-09-23T07:09:58.481Z,12.60
2022-09-23T07:12:25.058Z,12.50
2022-09-23T07:14:51.673Z,12.60
2022-09-23T07:17:18.302Z,12.70
2022-09-23T07:19:44.913Z,12.60
2022-09-23T07:22:12.016Z,12.60
2022-09-23T07:24:38.653Z,12.60
2022-09-23T07:27:05.380Z,12.60
2022-09-23T07:29:42.527Z,12.70
2022-09-23T07:32:14.470Z,12.80
2022-09-23T07:34:41.971Z,13.00
2022-09-23T07:37:08.897Z,13.00
2022-09-23T07:39:36.717Z,13.10
2022-09-23T07:42:05.163Z,13.30
2022-09-23T07:44:32.025Z,13.40
2022-09-23T07:46:59.463Z,13.50
2022-09-23T07:49:26.506Z,13.50
2022-09-23T07:51:53.614Z,13.70
2022-09-23T07:54:20.491Z,14.00
2022-09-23T07:56:47.124Z,14.10
2022-09-23T07:59:17.118Z,14.20
2022-09-23T08:01:44.824Z,14.40
2022-09-23T08:04:17.797Z,14.60
2022-09-23T08:06:45.991Z,14.50
2022-09-23T08:09:12.755Z,14.50
2022-09-23T08:11:42.049Z,14.60
2022-09-23T08:14:13.592Z,14.80
2022-09-23T08:16:40.975Z,15.10
2022-09-23T08:19:07.937Z,15.20
2022-09-23T08:21:34.862Z,15.30
2022-09-23T08:24:01.574Z,15.40
2022-09-23T08:26:28.533Z,15.50
2022-09-23T08:28:56.486Z,15.50
2022-09-23T08:31:23.482Z,15.80
2022-09-23T08:33:56.678Z,16.10
2022-09-23T08:36:23.646Z,16.10
2022-09-23T08:38:50.309Z,16.40
2022-09-23T08:41:36.006Z,17.00
2022-09-23T08:44:20.917Z,17.50
2022-09-23T08:47:07.741Z,18.00
2022-09-23T08:49:52.678Z,18.30
2022-09-23T08:52:27.220Z,18.50
2022-09-23T08:54:55.595Z,18.80
2022-09-23T08:57:31.017Z,18.90
2022-09-23T08:59:57.891Z,19.10
2022-09-23T09:02:24.651Z,19.90
2022-09-23T09:04:57.206Z,20.60
2022-09-23T09:07:37.687Z,21.90
2022-09-23T09:10:05.298Z,22.70
2022-09-23T09:12:48.844Z,23.70
2022-09-23T09:15:18.464Z,23.90
2022-09-23T09:17:50.133Z,24.10
2022-09-23T09:20:23.141Z,24.50
2022-09-23T09:22:52.872Z,25.50
2022-09-23T09:25:38.299Z,26.40
2022-09-23T09:28:13.356Z,27.20
2022-09-23T09:30:41.046Z,27.60
2022-09-23T09:33:13.603Z,27.70
2022-09-23T09:35:50.443Z,27.40
2022-09-23T09:38:17.111Z,27.90
2022-09-23T09:40:46.965Z,28.50
2022-09-23T09:43:22.636Z,29.20
2022-09-23T09:45:59.150Z,29.30
2022-09-23T09:48:31.384Z,29.10
2022-09-23T09:51:16.628Z,28.90
2022-09-23T09:53:43.108Z,28.80
2022-09-23T09:56:10.944Z,29.50
2022-09-23T09:58:46.769Z,29.20
2022-09-23T10:01:24.142Z,30.00
2022-09-23T10:03:55.570Z,30.00
2022-09-23T10:06:25.947Z,30.60
2022-09-23T10:09:01.798Z,30.70
2022-09-23T10:11:29.459Z,30.40
2022-09-23T10:14:05.522Z,30.30
2022-09-23T10:16:34.293Z,30.50
2022-09-23T10:19:02.936Z,30.90
2022-09-23T10:21:37.556Z,30.80
2022-09-23T10:24:05.628Z,31.20
2022-09-23T10:26:38.862Z,31.50
2022-09-23T10:29:24.337Z,31.60
2022-09-23T10:32:11.791Z,31.90
2022-09-23T10:34:42.557Z,32.20
2022-09-23T10:37:23.020Z,32.20
2022-09-23T10:40:08.370Z,31.00
2022-09-23T10:43:03.227Z,30.90
2022-09-23T10:46:12.240Z,30.40
2022-09-23T10:48:50.987Z,31.20
2022-09-23T10:51:26.383Z,32.00
2022-09-23T10:54:03.982Z,32.30
2022-09-23T10:56:33.851Z,31.60
2022-09-23T10:59:03.359Z,31.70
2022-09-23T11:01:48.945Z,31.90
2022-09-23T11:04:34.430Z,31.80
2022-09-23T11:07:07.330Z,31.30
2022-09-23T11:09:40.441Z,30.60
2022-09-23T11:12:13.723Z,30.70
2022-09-23T11:14:43.365Z,30.70
2022-09-23T11:17:16.346Z,30.60
2022-09-23T11:20:01.735Z,31.10
2022-09-23T11:22:46.537Z,31.70
2022-09-23T11:25:16.797Z,32.00
2022-09-23T11:27:57.028Z,32.20
2022-09-23T11:30:29.988Z,32.10
2022-09-23T11:33:13.824Z,31.50
2022-09-23T11:35:50.853Z,30.90
2022-09-23T11:38:25.799Z,30.80
2022-09-23T11:40:55.583Z,30.40
2022-09-23T11:43:28.497Z,30.00
2022-09-23T11:45:58.638Z,29.40
2022-09-23T11:48:30.074Z,28.90
2022-09-23T11:51:00.033Z,28.80
2022-09-23T11:53:34.916Z,29.10
2022-09-23T11:56:05.553Z,29.10
2022-09-23T12:01:13.268Z,28.50
2022-09-23T12:03:49.365Z,28.30
2022-09-23T12:06:20.055Z,28.00
2022-09-23T12:08:48.875Z,28.40
2022-09-23T12:11:22.103Z,28.20
2022-09-23T12:13:54.978Z,27.80
2022-09-23T12:16:40.297Z,27.20
2022-09-23T12:19:22.531Z,27.30
2022-09-23T12:22:08.344Z,27.50
2022-09-23T12:24:46.016Z,27.60
2022-09-23T12:27:34.401Z,27.50
2022-09-23T12:30:02.655Z,27.10
2022-09-23T12:32:32.262Z,26.70
2022-09-23T12:35:00.562Z,27.40
2022-09-23T12:37:27.413Z,28.20
2022-09-23T12:39:54.553Z,28.80
2022-09-23T12:42:22.303Z,28.60
2022-09-23T12:44:49.136Z,28.00
2022-09-23T12:47:24.968Z,27.40
2022-09-23T12:49:53.180Z,26.80
2022-09-23T12:52:19.819Z,26.00
2022-09-23T12:54:47.642Z,25.20
2022-09-23T12:57:34.315Z,24.50
2022-09-23T13:00:11.167Z,24.00
2022-09-23T13:02:37.878Z,23.60
2022-09-23T13:05:29.930Z,23.30
2022-09-23T13:08:02.447Z,23.20
2022-09-23T13:10:30.736Z,23.30
2022-09-23T13:12:57.578Z,23.10
2022-09-23T13:15:33.939Z,23.20
2022-09-23T13:18:18.964Z,23.50
2022-09-23T13:20:46.859Z,23.70
2022-09-23T13:23:31.341Z,23.80
2022-09-23T13:26:00.042Z,23.80
2022-09-23T13:28:30.801Z,23.60
2022-09-23T13:30:58.474Z,23.50
2022-09-23T13:33:46.031Z,23.50
2022-09-23T13:36:14.475Z,23.40
2022-09-23T13:38:41.595Z,23.50
2022-09-23T13:41:16.368Z,23.60
2022-09-23T13:43:54.031Z,23.50
2022-09-23T13:46:26.410Z,23.30
2022-09-23T13:48:56.656Z,23.10
2022-09-23T13:51:36.493Z,22.90
2022-09-23T13:54:04.439Z,22.80
2022-09-23T13:56:32.423Z,22.60
2022-09-23T13:59:18.022Z,22.60
2022-09-23T14:01:45.594Z,22.70
2022-09-23T14:04:25.474Z,22.70
2022-09-23T14:06:53.207Z,22.70
2022-09-23T14:09:23.640Z,22.90
2022-09-23T14:11:51.340Z,23.00
2022-09-23T14:14:18.289Z,23.30
2022-09-23T14:16:45.144Z,23.50
2022-09-23T14:19:17.707Z,24.00
2022-09-23T14:21:49.579Z,24.40
2022-09-23T14:24:20.639Z,24.30
2022-09-23T14:26:49.009Z,24.20
2022-09-23T14:29:17.907Z,24.10
2022-09-23T14:31:58.426Z,24.10
2022-09-23T14:34:44.049Z,23.80
2022-09-23T14:37:40.139Z,23.40
2022-09-23T14:40:12.146Z,23.00
2022-09-23T14:42:41.165Z,22.70
2022-09-23T14:45:12.679Z,22.60
2022-09-23T14:47:42.638Z,22.40
2022-09-23T14:50:33.606Z,22.30
2022-09-23T14:53:00.711Z,22.10
2022-09-23T14:55:28.904Z,22.00
2022-09-23T14:58:03.360Z,21.90
2022-09-23T15:00:31.267Z,21.80
2022-09-23T15:03:02.670Z,21.70
2022-09-23T15:05:40.729Z,21.60
2022-09-23T15:08:07.573Z,21.50
2022-09-23T15:10:37.530Z,21.40
2022-09-23T15:13:09.039Z,21.50
2022-09-23T15:15:35.995Z,21.50
2022-09-23T15:18:23.147Z,21.40
2022-09-23T15:20:52.181Z,21.40
2022-09-23T15:23:52.624Z,21.30
2022-09-23T15:26:26.669Z,21.20
2022-09-23T15:28:56.149Z,21.20
2022-09-23T15:31:26.448Z,21.10
2022-09-23T15:33:53.335Z,21.00
2022-09-23T15:36:21.309Z,21.00
2022-09-23T15:38:48.383Z,20.80
2022-09-23T15:41:15.710Z,20.80
2022-09-23T15:43:42.597Z,20.70
2022-09-23T15:46:14.183Z,20.70
2022-09-23T15:48:42.865Z,20.70
2022-09-23T15:51:13.115Z,20.50
2022-09-23T15:53:39.787Z,20.50
2022-09-23T15:56:06.583Z,20.50
2022-09-23T15:58:36.198Z,20.50
2022-09-23T16:01:03.616Z,20.50
2022-09-23T16:03:30.255Z,20.50
2022-09-23T16:06:00.191Z,20.50
2022-09-23T16:08:27.413Z,20.50
2022-09-23T16:10:54.963Z,20.30
2022-09-23T16:13:21.851Z,20.20
2022-09-23T16:15:48.480Z,20.10
2022-09-23T16:18:15.142Z,20.00
2022-09-23T16:20:42.793Z,19.90
2022-09-23T16:23:18.064Z,19.70
2022-09-23T16:25:44.979Z,19.60
2022-09-23T16:28:11.630Z,19.60
2022-09-23T16:30:38.449Z,19.50
2022-09-23T16:33:05.084Z,19.40
2022-09-23T16:35:33.498Z,19.30
2022-09-23T16:38:00.235Z,19.10
2022-09-23T16:40:27.017Z,19.10
2022-09-23T16:42:55.932Z,19.00
2022-09-23T16:45:23.394Z,18.90
2022-09-23T16:47:51.174Z,18.80
2022-09-23T16:50:19.133Z,18.70
2022-09-23T16:52:46.960Z,18.60
2022-09-23T16:55:13.838Z,18.50
2022-09-23T16:57:41.065Z,18.50
2022-09-23T17:00:28.898Z,18.30
2022-09-23T17:03:14.124Z,18.20
2022-09-23T17:05:40.707Z,18.10
2022-09-23T17:08:07.702Z,18.00
2022-09-23T17:10:34.666Z,17.90
2022-09-23T17:13:01.734Z,17.70
2022-09-23T17:15:28.406Z,17.60
2022-09-23T17:17:55.037Z,17.50
2022-09-23T17:20:21.682Z,17.50
2022-09-23T17:22:50.379Z,17.30
2022-09-23T17:25:17.006Z,17.30
2022-09-23T17:27:43.724Z,17.20
2022-09-23T17:30:10.555Z,17.10
2022-09-23T17:32:38.188Z,17.00
2022-09-23T17:35:05.115Z,17.00
2022-09-23T17:37:32.770Z,16.90
2022-09-23T17:40:00.011Z,16.90
2022-09-23T17:42:29.872Z,16.80
2022-09-23T17:44:56.480Z,16.70
2022-09-23T17:47:26.772Z,16.70
2022-09-23T17:49:58.048Z,16.70
2022-09-23T17:52:24.849Z,16.60
2022-09-23T17:54:53.760Z,16.50
2022-09-23T17:57:20.752Z,16.50
2022-09-23T17:59:50.670Z,16.50
2022-09-23T18:02:19.828Z,16.40
2022-09-23T18:04:46.944Z,16.30
2022-09-23T18:07:14.272Z,16.30
2022-09-23T18:09:40.976Z,16.30
2022-09-23T18:12:12.028Z,16.30
2022-09-23T18:14:51.252Z,16.20
2022-09-23T18:17:20.442Z,16.20
2022-09-23T18:19:50.731Z,16.10
2022-09-23T18:22:17.665Z,16.10
2022-09-23T18:24:44.961Z,16.10
2022-09-23T18:27:15.083Z,16.20
2022-09-23T18:29:41.901Z,16.10
2022-09-23T18:32:27.002Z,16.20
2022-09-23T18:34:53.753Z,16.30
2022-09-23T18:37:20.422Z,16.40
2022-09-23T18:39:48.647Z,16.40
2022-09-23T18:42:15.418Z,16.50
2022-09-23T18:44:42.049Z,16.70
2022-09-23T18:47:29.725Z,16.90
2022-09-23T18:53:07.306Z,16.80
2022-09-23T18:55:35.177Z,16.60
2022-09-23T18:58:02.014Z,16.50
2022-09-23T19:00:28.826Z,16.30
2022-09-23T19:02:55.859Z,16.20
2022-09-23T19:05:23.638Z,16.20
2022-09-23T19:07:50.943Z,16.00
2022-09-23T19:10:19.343Z,16.00
2022-09-23T19:12:49.314Z,16.00
2022-09-23T19:15:16.599Z,16.00
2022-09-23T19:17:43.298Z,16.00
2022-09-23T19:20:10.336Z,16.00
2022-09-23T19:22:39.809Z,15.80
2022-09-23T19:25:06.823Z,15.80
2022-09-23T19:27:42.887Z,15.70
2022-09-23T19:30:11.717Z,15.70
2022-09-23T19:32:44.950Z,15.60
2022-09-23T19:35:15.670Z,15.50
2022-09-23T19:37:47.106Z,15.60
2022-09-23T19:40:13.806Z,15.70
2022-09-23T19:42:43.646Z,15.80
2022-09-23T19:45:10.282Z,15.70
2022-09-23T19:47:38.152Z,15.80
2022-09-23T19:50:07.326Z,15.70
2022-09-23T19:52:33.958Z,15.70
2022-09-23T19:55:00.644Z,15.70
2022-09-23T19:57:31.070Z,15.60
2022-09-23T19:59:57.710Z,15.60
2022-09-23T20:02:24.357Z,15.50
2022-09-23T20:04:54.017Z,15.50
2022-09-23T20:07:20.647Z,15.40
2022-09-23T20:09:48.444Z,15.30
2022-09-23T20:12:15.538Z,15.20
2022-09-23T20:14:45.166Z,15.00
2022-09-23T20:17:14.020Z,15.00
2022-09-23T20:19:40.720Z,14.90
2022-09-23T20:22:28.501Z,14.80
2022-09-23T20:24:59.277Z,14.80
2022-09-23T20:27:31.604Z,14.70
2022-09-23T20:29:58.797Z,14.70
2022-09-23T20:32:25.558Z,14.60
2022-09-23T20:34:53.325Z,14.50
2022-09-23T20:37:21.020Z,14.50
2022-09-23T20:39:48.086Z,14.50
2022-09-23T20:42:15.924Z,14.40
2022-09-23T20:44:43.358Z,14.30
2022-09-23T20:47:13.021Z,14.30
2022-09-23T20:49:43.908Z,14.30
2022-09-23T20:52:14.718Z,14.20
2022-09-23T20:54:42.127Z,14.20
2022-09-23T20:57:09.875Z,14.10
2022-09-23T20:59:36.485Z,14.00
2022-09-23T21:02:03.638Z,14.10
2022-09-23T21:04:30.447Z,14.10
2022-09-23T21:06:58.138Z,14.10
2022-09-23T21:09:28.774Z,14.10
2022-09-23T21:11:55.517Z,14.20
2022-09-23T21:14:22.514Z,14.10
2022-09-23T21:16:50.453Z,14.20
2022-09-23T21:19:19.661Z,14.10
2022-09-23T21:21:46.431Z,14.20
2022-09-23T21:24:40.050Z,14.20
2022-09-23T21:26:59.970Z,14.30
2022-09-23T21:29:27.721Z,14.30
2022-09-23T21:31:54.428Z,14.30
2022-09-23T21:34:21.214Z,14.30
2022-09-23T21:36:48.290Z,14.30
2022-09-23T21:39:15.062Z,14.30
2022-09-23T21:41:42.227Z,14.40
2022-09-23T21:44:08.970Z,14.30
2022-09-23T21:46:38.696Z,14.40
2022-09-23T21:49:05.422Z,14.30
2022-09-23T21:51:40.838Z,14.40
2022-09-23T21:54:11.185Z,14.30
2022-09-23T21:56:37.903Z,14.30
2022-09-23T21:59:05.379Z,14.50
2022-09-23T22:01:36.396Z,14.40
2022-09-23T22:04:10.859Z,14.50
2022-09-23T22:06:38.439Z,14.50
2022-09-23T22:09:08.798Z,14.40
2022-09-23T22:11:56.648Z,14.50
2022-09-23T22:14:25.420Z,14.50
2022-09-23T22:16:58.930Z,14.50
2022-09-23T22:19:26.970Z,14.50
2022-09-23T22:21:53.992Z,14.50
2022-09-23T22:24:20.690Z,14.60
2022-09-23T22:26:47.571Z,14.50
2022-09-23T22:29:33.985Z,14.60
2022-09-23T22:32:21.154Z,14.60
2022-09-23T22:34:51.640Z,14.60
2022-09-23T22:37:20.509Z,14.70
2022-09-23T22:39:47.347Z,14.70
2022-09-23T22:42:14.475Z,14.70
2022-09-23T22:44:41.321Z,14.80
2022-09-23T22:47:09.222Z,14.80
2022-09-23T22:49:36.985Z,14.80
2022-09-23T22:52:07.759Z,14.80
2022-09-23T22:54:35.033Z,14.80
2022-09-23T22:57:03.820Z,14.80
2022-09-23T22:59:32.742Z,14.80
2022-09-23T23:02:00.051Z,14.80
2022-09-23T23:04:27.575Z,14.80
2022-09-23T23:06:54.193Z,14.80
2022-09-23T23:09:22.047Z,14.80
2022-09-23T23:11:48.643Z,14.80
2022-09-23T23:14:17.254Z,14.70
2022-09-23T23:16:45.146Z,14.70
2022-09-23T23:19:13.566Z,14.70
2022-09-23T23:21:43.399Z,14.60
2022-09-23T23:24:13.966Z,14.70
2022-09-23T23:26:40.692Z,14.60
2022-09-23T23:29:07.319Z,14.60
2022-09-23T23:31:34.092Z,14.70
2022-09-23T23:34:00.851Z,14.60
2022-09-23T23:36:31.052Z,14.60
2022-09-23T23:38:57.692Z,14.60
2022-09-23T23:41:24.310Z,14.60
2022-09-23T23:43:58.782Z,14.60
2022-09-23T23:46:26.515Z,14.60
2022-09-23T23:48:53.996Z,14.50
2022-09-23T23:51:22.605Z,14.60
2022-09-23T23:53:49.251Z,14.50
2022-09-23T23:56:18.350Z,14.50
2022-09-23T23:58:45.074Z,14.50
